Time;durP1;ratioP1;P1;durP2;ratioP2;P2;SDS_P1;SDS_P2;PMS_P1;PMS_P2;Temp;Humidity;BMP_temperature;BMP_pressure;BME280_temperature;BME280_humidity;BME280_pressure;Samples;Min_cycle;Max_cycle;Signal;HPM_P1;HPM_P2
2022/03/03 00:00:16;;;;;;;19.57;17.50;;;;;;;-0.45;72.02;92541.69;5092685;28;20192;-79
2022/03/03 00:02:43;;;;;;;21.03;18.87;;;;;;;-0.30;70.31;92580.56;5086513;28;20216;-79
2022/03/03 00:05:09;;;;;;;21.83;19.10;;;;;;;-0.26;72.52;92579.13;5088849;28;20299;-78
2022/03/03 00:07:35;;;;;;;20.93;19.10;;;;;;;-0.27;72.96;92573.25;5090833;28;20232;-79
2022/03/03 00:10:01;;;;;;;19.17;17.23;;;;;;;-0.48;71.00;92555.72;5090774;28;20184;-79
2022/03/03 00:12:26;;;;;;;20.87;18.73;;;;;;;-0.45;70.67;92554.50;5089616;28;20220;-78
2022/03/03 00:14:52;;;;;;;20.17;18.27;;;;;;;-0.47;70.40;92534.19;5089299;28;20189;-78
2022/03/03 00:17:17;;;;;;;21.30;18.00;;;;;;;-0.34;70.72;92554.56;5090520;28;20247;-78
2022/03/03 00:19:43;;;;;;;19.73;17.67;;;;;;;-0.27;71.74;92557.06;5089044;28;20212;-78
2022/03/03 00:22:09;;;;;;;18.00;15.77;;;;;;;-0.27;71.56;92565.56;5089576;28;20208;-78
2022/03/03 00:24:35;;;;;;;19.70;17.60;;;;;;;-0.39;71.39;92540.84;5108662;28;20181;-78
2022/03/03 00:27:00;;;;;;;20.07;17.40;;;;;;;-0.35;70.94;92550.44;5087934;28;20185;-78
2022/03/03 00:29:25;;;;;;;22.80;17.50;;;;;;;-0.23;71.21;92564.13;5092292;28;20196;-78
2022/03/03 00:31:51;;;;;;;20.43;18.43;;;;;;;-0.40;70.74;92536.69;5088290;28;20216;-79
2022/03/03 00:34:17;;;;;;;20.10;18.10;;;;;;;-0.25;70.94;92552.50;5090609;28;20226;-79
2022/03/03 00:36:42;;;;;;;18.77;16.87;;;;;;;-0.29;71.29;92556.50;5089320;28;20177;-78
2022/03/03 00:39:08;;;;;;;20.07;18.00;;;;;;;-0.25;72.28;92555.06;5088181;28;20224;-79
2022/03/03 00:41:34;;;;;;;21.83;19.37;;;;;;;-0.26;71.19;92556.06;5105940;28;20185;-78
2022/03/03 00:43:59;;;;;;;21.50;18.37;;;;;;;-0.40;71.50;92532.34;5090340;28;20239;-79
2022/03/03 00:46:25;;;;;;;20.17;18.20;;;;;;;-0.29;71.93;92538.53;5088351;28;20227;-79
2022/03/03 00:48:51;;;;;;;18.70;16.87;;;;;;;-0.41;71.72;92525.66;5090533;28;20216;-79
2022/03/03 00:51:18;;;;;;;21.27;19.00;;;;;;;-0.48;72.90;92521.59;5089652;28;20224;-79
2022/03/03 00:53:43;;;;;;;21.00;18.80;;;;;;;-0.32;72.29;92544.09;5089566;28;20228;-79
2022/03/03 00:56:09;;;;;;;21.30;19.27;;;;;;;-0.36;72.47;92548.09;5088981;28;20184;-79
2022/03/03 00:58:34;;;;;;;21.27;19.03;;;;;;;-0.60;72.97;92516.41;5088900;28;20225;-78
2022/03/03 01:01:01;;;;;;;21.70;19.23;;;;;;;-0.41;72.45;92533.38;5091157;28;20358;-79
2022/03/03 01:03:27;;;;;;;21.53;19.43;;;;;;;-0.40;72.82;92524.66;5102469;28;20223;-80
2022/03/03 01:05:53;;;;;;;20.93;18.83;;;;;;;-0.20;72.33;92557.75;5089008;28;20195;-78
2022/03/03 01:08:18;;;;;;;22.93;20.50;;;;;;;-0.22;72.72;92559.78;5087545;28;20232;-79
2022/03/03 01:10:44;;;;;;;22.97;20.63;;;;;;;-0.18;72.99;92538.59;5087267;28;20193;-79
2022/03/03 01:13:09;;;;;;;21.97;19.07;;;;;;;-0.29;72.83;92548.78;5090518;28;20232;-79
2022/03/03 01:15:35;;;;;;;20.40;18.47;;;;;;;-0.40;73.22;92527.22;5087475;28;20184;-79
2022/03/03 01:18:00;;;;;;;21.93;19.40;;;;;;;-0.45;73.40;92516.06;5089848;28;20286;-78
2022/03/03 01:20:27;;;;;;;21.57;19.33;;;;;;;-0.35;73.33;92529.13;5087519;28;20248;-79
2022/03/03 01:22:53;;;;;;;24.30;21.77;;;;;;;-0.34;75.84;92526.38;5089613;28;20228;-79
2022/03/03 01:25:19;;;;;;;28.20;21.63;;;;;;;-0.43;74.03;92527.66;5090349;28;20181;-78
2022/03/03 01:27:45;;;;;;;23.00;19.40;;;;;;;-0.51;73.74;92509.19;5086332;28;21136;-80
2022/03/03 01:30:11;;;;;;;22.90;20.40;;;;;;;-0.36;73.44;92517.31;5087716;28;20189;-78
2022/03/03 01:32:37;;;;;;;24.00;21.50;;;;;;;-0.36;73.73;92532.72;5089040;28;20246;-79
2022/03/03 01:35:02;;;;;;;23.60;21.10;;;;;;;-0.59;73.95;92481.31;5089234;28;20184;-78
2022/03/03 01:37:28;;;;;;;22.43;20.13;;;;;;;-0.22;74.54;92544.38;5090090;28;20243;-79
2022/03/03 01:39:53;;;;;;;23.17;19.93;;;;;;;-0.50;74.63;92515.91;5087082;28;20222;-79
2022/03/03 01:42:19;;;;;;;23.53;21.17;;;;;;;-0.45;74.36;92493.75;5088712;28;20232;-79
2022/03/03 01:44:45;;;;;;;26.57;22.50;;;;;;;-0.44;74.25;92500.47;5089969;28;20258;-79
2022/03/03 01:47:23;;;;;;;26.97;21.90;;;;;;;-0.31;75.18;92522.56;5084715;28;20320;-79
2022/03/03 01:49:52;;;;;;;23.60;20.73;;;;;;;-0.18;75.21;92525.78;5088763;28;20176;-78
2022/03/03 01:52:17;;;;;;;23.70;20.70;;;;;;;-0.15;76.37;92527.13;5088425;28;20284;-79
2022/03/03 01:54:43;;;;;;;23.37;20.83;;;;;;;-0.36;74.62;92481.44;5089092;28;20663;-80
2022/03/03 01:57:10;;;;;;;25.47;21.80;;;;;;;-0.25;74.89;92525.06;5088977;28;20189;-81
2022/03/03 01:59:37;;;;;;;24.90;21.17;;;;;;;-0.28;75.18;92522.16;5087621;28;20196;-81
2022/03/03 02:02:05;;;;;;;26.53;21.13;;;;;;;-0.31;75.05;92515.66;5088735;28;20189;-81
2022/03/03 02:04:31;;;;;;;25.27;22.60;;;;;;;-0.35;76.02;92477.84;5086424;28;20185;-81
2022/03/03 02:06:57;;;;;;;22.70;20.30;;;;;;;-0.15;76.76;92514.31;5086087;28;20216;-81
2022/03/03 02:09:22;;;;;;;24.37;21.50;;;;;;;-0.60;74.88;92464.34;5089273;28;20188;-81
2022/03/03 02:11:49;;;;;;;26.17;21.73;;;;;;;-0.51;74.69;92484.34;5085913;28;20204;-81
2022/03/03 02:14:15;;;;;;;24.60;20.07;;;;;;;-0.24;75.29;92502.78;5088224;28;20248;-80
2022/03/03 02:16:40;;;;;;;24.30;21.00;;;;;;;-0.28;75.24;92499.09;5089802;28;20173;-81
2022/03/03 02:19:06;;;;;;;22.90;20.53;;;;;;;-0.35;75.22;92490.69;5088982;28;20321;-82
2022/03/03 02:21:32;;;;;;;23.80;21.20;;;;;;;-0.26;75.14;92500.44;5089194;28;20172;-80
2022/03/03 02:23:57;;;;;;;24.23;21.67;;;;;;;-0.33;75.39;92496.38;5087285;28;20232;-82
2022/03/03 02:26:23;;;;;;;28.70;23.57;;;;;;;-0.31;75.97;92489.22;5104037;28;20184;-80
2022/03/03 02:28:53;;;;;;;24.60;21.60;;;;;;;-0.36;75.81;92501.94;5088600;28;20284;-82
2022/03/03 02:31:19;;;;;;;25.33;21.50;;;;;;;-0.82;75.56;92425.56;5085355;28;20209;-81
2022/03/03 02:33:45;;;;;;;24.37;21.17;;;;;;;-0.31;75.51;92509.75;5089584;28;20252;-82
2022/03/03 02:36:30;;;;;;;25.47;21.70;;;;;;;-0.34;76.67;92498.16;5086062;28;20258;-81
2022/03/03 02:38:58;;;;;;;27.77;23.37;;;;;;;-0.26;78.08;92485.03;5086699;28;20235;-81
2022/03/03 02:41:25;;;;;;;25.13;21.60;;;;;;;-0.26;76.93;92484.25;5084502;28;20179;-81
2022/03/03 02:43:52;;;;;;;25.67;23.07;;;;;;;-0.34;76.69;92505.06;5087492;28;20232;-82
2022/03/03 02:46:17;;;;;;;26.50;21.57;;;;;;;-0.34;76.76;92479.41;5089288;28;20204;-82
2022/03/03 02:48:43;;;;;;;25.60;22.83;;;;;;;-0.54;76.72;92468.63;5086713;28;20236;-80
2022/03/03 02:51:09;;;;;;;25.70;23.10;;;;;;;-0.40;76.82;92495.66;5086997;28;20231;-81
2022/03/03 02:53:35;;;;;;;22.83;20.40;;;;;;;-0.40;77.29;92496.47;5088999;28;20236;-81
2022/03/03 02:56:03;;;;;;;28.03;23.80;;;;;;;-0.34;78.01;92503.28;5083841;28;20188;-81
2022/03/03 02:58:28;;;;;;;23.87;21.30;;;;;;;-0.45;77.04;92493.75;5087896;28;20225;-82
2022/03/03 03:00:54;;;;;;;24.70;22.00;;;;;;;-0.47;77.06;92497.53;5088467;28;20199;-81
2022/03/03 03:03:19;;;;;;;25.53;22.83;;;;;;;-0.29;76.95;92508.56;5086108;28;20236;-80
2022/03/03 03:05:46;;;;;;;27.07;22.73;;;;;;;-0.31;77.42;92491.78;5087257;28;20188;-78
2022/03/03 03:08:12;;;;;;;24.70;21.70;;;;;;;-0.29;76.55;92492.38;5084338;28;20716;-79
2022/03/03 03:10:38;;;;;;;26.37;23.50;;;;;;;-0.61;77.97;92473.81;5088211;28;20316;-79
2022/03/03 03:13:05;;;;;;;25.97;21.57;;;;;;;-0.28;79.76;92499.09;5085593;28;20232;-78
2022/03/03 03:15:30;;;;;;;23.07;20.57;;;;;;;-0.40;76.69;92495.66;5082928;28;20197;-79
2022/03/03 03:17:56;;;;;;;26.03;22.43;;;;;;;-0.55;76.54;92457.59;5103020;28;20239;-78
2022/03/03 03:20:21;;;;;;;24.30;21.70;;;;;;;-0.51;76.86;92468.19;5086237;28;20181;-79
2022/03/03 03:22:49;;;;;;;29.90;22.50;;;;;;;-0.46;76.76;92488.84;5084633;28;20224;-79
2022/03/03 03:25:14;;;;;;;25.57;20.97;;;;;;;-0.25;76.63;92503.78;5089168;28;20185;-79
2022/03/03 03:27:42;;;;;;;26.80;21.57;;;;;;;-0.20;76.63;92503.91;5101599;28;20238;-78
2022/03/03 03:30:10;;;;;;;24.27;21.53;;;;;;;-0.27;77.39;92510.91;5088350;28;20196;-78
2022/03/03 03:32:36;;;;;;;24.60;21.97;;;;;;;-0.27;76.75;92504.00;5086221;28;20240;-78
2022/03/03 03:35:04;;;;;;;25.57;22.30;;;;;;;-0.43;77.02;92494.31;5085845;28;20220;-78
2022/03/03 03:37:29;;;;;;;27.00;21.73;;;;;;;-0.31;77.01;92504.63;5086810;28;20240;-77
2022/03/03 03:39:56;;;;;;;27.97;21.80;;;;;;;-0.63;76.58;92450.19;5083779;28;20184;-79
2022/03/03 03:42:21;;;;;;;24.57;21.87;;;;;;;-0.38;77.10;92484.22;5088612;28;20224;-78
2022/03/03 03:44:47;;;;;;;27.00;21.37;;;;;;;-0.39;79.51;92480.06;5086306;28;20267;-78
2022/03/03 03:47:13;;;;;;;26.57;22.67;;;;;;;-0.38;76.72;92493.69;5087170;28;20235;-79
2022/03/03 03:49:39;;;;;;;23.97;20.40;;;;;;;-0.64;76.67;92458.88;5088137;28;20197;-79
2022/03/03 03:52:05;;;;;;;25.30;22.07;;;;;;;-0.20;77.13;92493.63;5085019;28;20224;-78
2022/03/03 03:54:30;;;;;;;28.47;22.50;;;;;;;-0.49;77.18;92481.56;5088108;28;20196;-79
2022/03/03 03:56:56;;;;;;;27.53;22.80;;;;;;;-0.45;77.60;92495.53;5084732;28;20188;-78
2022/03/03 03:59:22;;;;;;;29.47;22.43;;;;;;;-0.42;77.63;92500.25;5084231;28;20255;-78
2022/03/03 04:01:48;;;;;;;27.93;22.40;;;;;;;-0.38;76.82;92503.94;5086435;28;20209;-79
2022/03/03 04:04:13;;;;;;;29.50;22.93;;;;;;;-0.48;77.20;92488.25;5084758;28;20345;-78
2022/03/03 04:06:40;;;;;;;26.40;21.37;;;;;;;-0.48;76.36;92488.25;5088492;28;20199;-78
2022/03/03 04:09:05;;;;;;;28.77;23.10;;;;;;;-0.59;77.09;92476.94;5085281;28;20248;-78
2022/03/03 04:11:31;;;;;;;26.70;22.77;;;;;;;-0.22;76.81;92503.34;5085399;28;20209;-78
2022/03/03 04:13:57;;;;;;;27.47;22.00;;;;;;;-0.36;78.87;92491.69;5086990;28;20229;-79
2022/03/03 04:16:24;;;;;;;29.40;22.40;;;;;;;-0.63;77.30;92457.09;5085799;28;20170;-78
2022/03/03 04:18:50;;;;;;;33.17;22.80;;;;;;;-0.41;76.79;92500.03;5085348;28;20217;-79
2022/03/03 04:21:15;;;;;;;27.87;21.17;;;;;;;-0.51;76.42;92479.22;5084171;28;20197;-79
2022/03/03 04:23:41;;;;;;;30.50;22.83;;;;;;;-0.35;77.42;92477.84;5083934;28;20208;-78
2022/03/03 04:26:06;;;;;;;26.80;21.60;;;;;;;-0.45;76.59;92451.97;5087218;28;20197;-77
2022/03/03 04:28:32;;;;;;;28.00;21.20;;;;;;;-0.42;75.51;92472.03;5084387;28;20756;-78
2022/03/03 04:30:57;;;;;;;26.30;20.77;;;;;;;-0.40;75.78;92495.66;5090751;28;20197;-78
2022/03/03 04:33:23;;;;;;;25.10;22.40;;;;;;;-0.50;75.54;92469.78;5089707;28;20216;-78
2022/03/03 04:35:48;;;;;;;26.00;21.17;;;;;;;-0.80;75.57;92438.16;5089107;28;20216;-78
2022/03/03 04:38:14;;;;;;;25.97;21.83;;;;;;;-0.38;75.94;92483.41;5090331;28;20232;-79
2022/03/03 04:40:40;;;;;;;26.70;21.60;;;;;;;-0.63;76.72;92468.13;5089625;28;20193;-78
2022/03/03 04:43:05;;;;;;;26.27;21.30;;;;;;;-0.37;78.22;92460.13;5087782;28;20247;-78
2022/03/03 04:45:30;;;;;;;25.33;20.30;;;;;;;-0.30;76.79;92475.44;5090675;28;20192;-79
2022/03/03 04:47:56;;;;;;;29.27;22.03;;;;;;;-0.39;76.58;92482.63;5087966;28;20232;-78
2022/03/03 04:50:21;;;;;;;32.23;20.73;;;;;;;-0.72;77.16;92430.19;5085984;28;20304;-79
2022/03/03 04:52:47;;;;;;;28.93;21.47;;;;;;;-0.39;76.43;92479.31;5087411;28;20274;-79
2022/03/03 04:55:12;;;;;;;25.90;20.60;;;;;;;-0.44;77.20;92479.94;5090250;28;20239;-78
2022/03/03 04:57:38;;;;;;;24.57;21.83;;;;;;;-0.67;77.27;92469.53;5089848;28;20285;-78
2022/03/03 05:00:06;;;;;;;24.30;19.83;;;;;;;-0.58;76.97;92477.75;5088661;28;20204;-77
2022/03/03 05:02:32;;;;;;;28.00;21.50;;;;;;;-0.61;75.83;92467.91;5091003;28;20232;-78
2022/03/03 05:04:57;;;;;;;30.43;22.50;;;;;;;-0.52;76.66;92474.31;5090297;28;20208;-78
2022/03/03 05:07:23;;;;;;;29.90;22.00;;;;;;;-0.50;76.94;92483.34;5087988;28;20296;-78
2022/03/03 05:09:48;;;;;;;26.33;21.67;;;;;;;-0.47;77.58;92482.16;5089674;28;20208;-78
2022/03/03 05:12:14;;;;;;;28.97;23.17;;;;;;;-0.86;78.10;92408.28;5103443;28;20221;-77
2022/03/03 05:14:39;;;;;;;27.97;22.90;;;;;;;-0.68;76.83;92427.00;5089871;28;20223;-77
2022/03/03 05:17:05;;;;;;;33.43;22.37;;;;;;;-0.53;76.90;92439.44;5088936;28;20193;-77
2022/03/03 05:19:31;;;;;;;25.87;21.27;;;;;;;-0.53;76.34;92453.00;5086879;28;20199;-77
2022/03/03 05:21:57;;;;;;;26.87;21.40;;;;;;;-0.70;76.35;92451.28;5102656;28;20273;-77
2022/03/03 05:24:23;;;;;;;29.13;21.23;;;;;;;-0.49;77.80;92477.25;5088532;28;20189;-76
2022/03/03 05:26:48;;;;;;;26.07;21.33;;;;;;;-0.45;76.63;92488.63;5088376;28;20271;-77
2022/03/03 05:29:13;;;;;;;27.30;21.50;;;;;;;-0.46;76.85;92474.25;5084853;28;20449;-78
2022/03/03 05:31:39;;;;;;;25.07;21.03;;;;;;;-0.41;77.59;92481.28;5088929;28;20212;-78
2022/03/03 05:34:05;;;;;;;28.97;23.93;;;;;;;-0.57;77.29;92474.97;5088947;28;20248;-77
2022/03/03 05:36:30;;;;;;;29.50;23.47;;;;;;;-0.62;77.64;92461.22;5105697;28;20193;-77
2022/03/03 05:38:58;;;;;;;29.63;21.57;;;;;;;-0.43;77.37;92491.75;5087045;28;20236;-77
2022/03/03 05:41:23;;;;;;;29.30;23.70;;;;;;;-0.49;77.50;92489.25;5086641;28;20185;-77
2022/03/03 05:43:50;;;;;;;27.73;21.57;;;;;;;-0.47;77.00;92489.84;5088223;28;20216;-78
2022/03/03 05:46:16;;;;;;;29.57;23.43;;;;;;;-0.45;76.76;92487.84;5088605;28;20177;-78
2022/03/03 05:48:41;;;;;;;29.37;21.77;;;;;;;-0.40;76.22;92475.94;5089052;28;20221;-77
2022/03/03 05:51:08;;;;;;;27.20;21.90;;;;;;;-0.47;75.25;92453.94;5088237;28;20203;-80
2022/03/03 05:53:34;;;;;;;32.90;22.20;;;;;;;-0.57;75.61;92471.59;5088109;28;20258;-80
2022/03/03 05:56:06;;;;;;;29.87;22.23;;;;;;;-0.43;75.50;92476.38;5087690;28;20319;-80
2022/03/03 05:58:50;;;;;;;29.37;21.53;;;;;;;-0.29;78.67;92477.00;5088852;28;20227;-80
2022/03/03 06:01:17;;;;;;;25.77;20.70;;;;;;;-0.11;77.34;92490.56;5089123;28;20303;-80
2022/03/03 06:03:46;;;;;;;25.53;21.53;;;;;;;-0.26;75.77;92494.50;5086812;28;20224;-81
2022/03/03 06:06:12;;;;;;;27.63;22.10;;;;;;;-0.28;76.82;92504.22;5088686;28;20192;-79
2022/03/03 06:08:51;;;;;;;29.47;22.43;;;;;;;-0.24;76.56;92490.75;5086057;28;20224;-81
2022/03/03 06:11:20;;;;;;;28.10;22.10;;;;;;;-0.17;75.05;92495.75;5084827;28;20193;-80
2022/03/03 06:13:48;;;;;;;31.40;23.97;;;;;;;-0.19;74.17;92474.69;5087745;28;20262;-79
2022/03/03 06:16:18;;;;;;;33.83;21.87;;;;;;;-0.14;74.03;92485.88;5085848;28;20758;-79
2022/03/03 06:18:46;;;;;;;27.87;21.80;;;;;;;-0.04;73.21;92496.41;5089246;28;20250;-80
2022/03/03 06:21:12;;;;;;;26.73;22.40;;;;;;;0.24;74.35;92495.81;5103609;28;20226;-80
2022/03/03 06:23:37;;;;;;;29.57;22.10;;;;;;;0.22;72.26;92494.47;5088287;28;20227;-80
2022/03/03 06:26:06;;;;;;;27.70;21.50;;;;;;;0.06;72.53;92480.50;5087031;28;20192;-80
2022/03/03 06:28:34;;;;;;;25.40;21.67;;;;;;;0.33;71.96;92486.78;5087392;28;20227;-80
2022/03/03 06:31:00;;;;;;;28.03;21.50;;;;;;;0.39;70.88;92490.28;5086795;28;20260;-80
2022/03/03 06:33:26;;;;;;;26.43;20.63;;;;;;;0.20;70.90;92494.69;5086650;28;20242;-81
2022/03/03 06:35:52;;;;;;;27.23;21.37;;;;;;;0.13;70.71;92450.38;5089202;28;20214;-80
2022/03/03 06:38:18;;;;;;;28.87;19.30;;;;;;;0.31;69.82;92480.31;5085378;28;20229;-78
2022/03/03 06:40:44;;;;;;;27.63;22.13;;;;;;;0.56;69.54;92486.84;5084600;28;21151;-83
2022/03/03 06:43:10;;;;;;;25.93;22.83;;;;;;;0.55;69.86;92492.19;5084491;28;20274;-82
2022/03/03 06:45:35;;;;;;;26.43;20.60;;;;;;;0.54;68.44;92499.13;5084476;28;20193;-83
2022/03/03 06:48:05;;;;;;;23.27;18.50;;;;;;;0.53;68.00;92494.97;5085246;28;20244;-83
2022/03/03 06:50:36;;;;;;;24.63;20.43;;;;;;;0.44;67.73;92470.63;5085008;28;21082;-83
2022/03/03 06:53:03;;;;;;;26.40;20.30;;;;;;;0.61;68.16;92499.81;5083492;28;20232;-79
2022/03/03 06:55:30;;;;;;;22.73;20.07;;;;;;;0.79;68.00;92476.59;5081680;28;20184;-82
2022/03/03 06:57:57;;;;;;;23.17;20.73;;;;;;;0.83;66.73;92457.16;5081680;28;20254;-82
2022/03/03 07:00:32;;;;;;;26.90;20.10;;;;;;;1.02;66.19;92497.16;5082130;28;20248;-82
2022/03/03 07:02:59;;;;;;;24.57;20.83;;;;;;;0.91;66.29;92508.22;5080673;28;20224;-81
2022/03/03 07:05:24;;;;;;;25.07;20.27;;;;;;;0.97;66.48;92493.69;5080590;28;20203;-80
2022/03/03 07:07:52;;;;;;;27.80;21.43;;;;;;;1.09;67.01;92515.81;5080643;28;20229;-81
2022/03/03 07:10:23;;;;;;;21.73;19.43;;;;;;;0.93;68.75;92511.34;5084696;28;20200;-84
2022/03/03 07:12:50;;;;;;;24.50;20.20;;;;;;;0.88;67.46;92498.38;5080453;28;20224;-84
2022/03/03 07:15:16;;;;;;;26.47;19.90;;;;;;;0.63;66.08;92458.50;5080253;28;20311;-83
2022/03/03 07:17:49;;;;;;;22.77;19.37;;;;;;;0.85;66.53;92487.75;5082598;28;20212;-84
2022/03/03 07:20:26;;;;;;;20.97;17.83;;;;;;;0.89;65.39;92507.66;5082973;28;20253;-84
2022/03/03 07:23:02;;;;;;;23.47;20.70;;;;;;;1.02;66.42;92494.59;5082210;28;20216;-77
2022/03/03 07:25:51;;;;;;;24.60;20.20;;;;;;;1.32;64.54;92502.19;5082988;28;20192;-82
2022/03/03 07:28:20;;;;;;;23.10;20.63;;;;;;;1.31;64.16;92501.38;5082812;28;20228;-81
2022/03/03 07:30:49;;;;;;;24.10;20.20;;;;;;;1.55;64.36;92502.16;5100934;28;20289;-82
2022/03/03 07:33:33;;;;;;;27.87;20.63;;;;;;;1.41;64.84;92504.19;5077060;28;20230;-83
2022/03/03 07:36:00;;;;;;;25.47;21.27;;;;;;;1.52;63.80;92502.59;5084763;28;20189;-84
2022/03/03 07:38:34;;;;;;;26.90;22.40;;;;;;;1.39;63.16;92477.91;5100072;28;20312;-83
2022/03/03 07:41:00;;;;;;;24.60;19.87;;;;;;;1.31;63.18;92491.09;5085464;28;20195;-83
2022/03/03 07:43:25;;;;;;;24.67;21.27;;;;;;;1.55;63.00;92492.66;5083808;28;20217;-81
2022/03/03 07:45:51;;;;;;;19.03;17.13;;;;;;;1.52;60.08;92479.44;5082840;28;20252;-87
2022/03/03 07:48:17;;;;;;;18.83;16.77;;;;;;;1.95;59.03;92476.41;5086925;28;20236;-82
2022/03/03 07:50:43;;;;;;;17.77;15.97;;;;;;;2.05;58.32;92499.75;5101647;28;20193;-80
2022/03/03 07:53:10;;;;;;;18.83;16.83;;;;;;;2.05;58.43;92489.47;5084216;28;20255;-78
2022/03/03 07:55:45;;;;;;;16.13;14.73;;;;;;;1.78;59.25;92504.66;5083429;28;20200;-79
2022/03/03 07:58:14;;;;;;;19.03;17.13;;;;;;;1.87;59.08;92502.53;5099373;28;20236;-79
2022/03/03 08:00:46;;;;;;;18.97;17.17;;;;;;;1.78;59.52;92506.44;5081538;28;20207;-81
2022/03/03 08:03:15;;;;;;;18.33;16.30;;;;;;;1.51;60.15;92486.38;5082636;28;20232;-79
2022/03/03 08:05:44;;;;;;;20.53;17.63;;;;;;;1.53;60.38;92489.50;5106642;28;20188;-83
2022/03/03 08:08:14;;;;;;;19.23;16.33;;;;;;;1.04;61.09;92415.47;5089500;28;20220;-77
2022/03/03 08:10:42;;;;;;;19.47;17.67;;;;;;;1.64;62.01;92488.72;5088520;28;20234;-80
2022/03/03 08:13:11;;;;;;;17.90;16.27;;;;;;;1.57;60.39;92490.59;5087443;28;20217;-79
2022/03/03 08:15:38;;;;;;;21.10;17.97;;;;;;;1.25;62.15;92498.94;5089115;28;20218;-78
2022/03/03 08:18:04;;;;;;;17.67;16.00;;;;;;;1.34;60.37;92477.78;5091332;28;20227;-77
2022/03/03 08:20:33;;;;;;;20.13;18.07;;;;;;;1.49;60.26;92472.19;5087032;28;20189;-78
2022/03/03 08:23:01;;;;;;;18.60;16.23;;;;;;;1.64;60.25;92506.72;5087920;28;20228;-77
2022/03/03 08:25:27;;;;;;;19.30;16.87;;;;;;;1.30;60.68;92463.84;5087015;28;20210;-82
2022/03/03 08:27:54;;;;;;;19.73;17.73;;;;;;;1.67;59.53;92510.59;5103448;28;20233;-76
2022/03/03 08:30:21;;;;;;;18.20;16.23;;;;;;;1.87;58.89;92487.09;5087034;28;20185;-79
2022/03/03 08:33:19;;;;;;;21.90;17.93;;;;;;;2.40;58.44;92490.09;5087367;28;20282;-78
2022/03/03 08:35:52;;;;;;;17.93;16.30;;;;;;;2.31;58.31;92500.00;5098167;28;20223;-79
2022/03/03 08:38:23;;;;;;;20.03;18.00;;;;;;;1.83;58.26;92473.09;5088171;28;20274;-79
2022/03/03 08:40:51;;;;;;;18.40;16.50;;;;;;;1.86;58.65;92503.50;5087813;28;20177;-81
2022/03/03 08:43:20;;;;;;;20.07;17.47;;;;;;;1.65;58.51;92472.25;5085748;28;20274;-79
2022/03/03 08:45:48;;;;;;;20.50;18.13;;;;;;;2.17;58.98;92505.66;5088959;28;20193;-79
2022/03/03 08:48:15;;;;;;;23.30;20.83;;;;;;;2.24;58.15;92498.56;5086714;28;20252;-79
2022/03/03 08:50:42;;;;;;;20.83;18.17;;;;;;;2.59;57.39;92496.59;5085046;28;20261;-80
2022/03/03 08:53:10;;;;;;;19.30;17.17;;;;;;;2.55;57.24;92498.09;5085828;28;20228;-79
2022/03/03 08:55:37;;;;;;;17.17;15.40;;;;;;;2.36;56.87;92504.44;5086049;28;20197;-80
2022/03/03 08:58:04;;;;;;;21.33;19.13;;;;;;;2.16;59.36;92509.25;5087725;28;20294;-83
2022/03/03 09:00:31;;;;;;;20.23;18.27;;;;;;;2.10;59.98;92513.50;5086455;28;20195;-82
2022/03/03 09:02:58;;;;;;;20.37;18.27;;;;;;;2.32;58.76;92504.13;5084917;28;20231;-83
2022/03/03 09:05:24;;;;;;;20.03;17.70;;;;;;;2.51;59.29;92482.31;5083748;28;20210;-80
2022/03/03 09:07:50;;;;;;;19.93;17.93;;;;;;;2.84;57.94;92502.16;5082890;28;20220;-82
2022/03/03 09:10:16;;;;;;;16.13;14.77;;;;;;;2.64;55.09;92488.94;5104038;28;20169;-80
2022/03/03 09:12:42;;;;;;;17.00;15.40;;;;;;;3.26;54.99;92478.31;5079190;28;20229;-77
2022/03/03 09:15:08;;;;;;;18.47;16.50;;;;;;;3.46;54.07;92506.16;5085772;28;20197;-79
2022/03/03 09:17:35;;;;;;;21.10;18.87;;;;;;;3.87;54.70;92490.19;5087165;28;20220;-81
2022/03/03 09:20:03;;;;;;;19.80;17.03;;;;;;;3.99;54.64;92506.31;5089455;28;20196;-80
2022/03/03 09:22:29;;;;;;;19.60;17.80;;;;;;;3.74;54.28;92495.69;5087525;28;20235;-82
2022/03/03 09:24:55;;;;;;;20.57;18.37;;;;;;;3.17;55.45;92512.47;5085459;28;20907;-84
2022/03/03 09:27:22;;;;;;;17.63;15.87;;;;;;;3.39;53.07;92507.34;5085115;28;20262;-86
2022/03/03 09:29:48;;;;;;;17.57;15.87;;;;;;;3.27;53.09;92502.28;5085814;28;20195;-82
2022/03/03 09:32:14;;;;;;;15.90;14.47;;;;;;;3.48;53.21;92478.34;5087958;28;20216;-80
2022/03/03 09:34:39;;;;;;;16.00;14.43;;;;;;;3.64;51.35;92513.66;5089369;28;20241;-81
2022/03/03 09:37:05;;;;;;;18.93;16.93;;;;;;;3.52;52.60;92465.75;5085126;28;20188;-80
2022/03/03 09:39:31;;;;;;;16.37;14.87;;;;;;;2.92;52.17;92487.09;5087791;28;20196;-79
2022/03/03 09:41:56;;;;;;;18.13;16.37;;;;;;;3.13;53.94;92508.78;5084215;28;20203;-84
2022/03/03 09:44:23;;;;;;;16.57;14.97;;;;;;;3.26;52.94;92485.25;5088477;28;20226;-84
2022/03/03 09:46:50;;;;;;;18.17;16.53;;;;;;;3.81;53.39;92509.22;5085499;28;20201;-78
2022/03/03 09:49:16;;;;;;;16.37;14.93;;;;;;;3.71;51.33;92506.50;5087915;28;20237;-86
2022/03/03 09:51:42;;;;;;;20.13;17.30;;;;;;;3.21;52.61;92434.38;5087735;28;20220;-82
2022/03/03 09:54:08;;;;;;;19.07;17.33;;;;;;;3.25;53.66;92506.91;5104768;28;20220;-81
2022/03/03 09:56:34;;;;;;;17.60;15.90;;;;;;;3.31;52.59;92498.22;5089304;28;20188;-82
2022/03/03 09:58:59;;;;;;;18.73;16.90;;;;;;;3.33;54.41;92491.03;5087586;28;20224;-82
2022/03/03 10:01:28;;;;;;;19.40;17.50;;;;;;;3.47;54.06;92506.94;5088684;28;20933;-83
2022/03/03 10:03:58;;;;;;;16.30;14.73;;;;;;;4.08;56.23;92499.69;5084318;28;20258;-86
2022/03/03 10:06:23;;;;;;;15.90;14.30;;;;;;;4.54;53.07;92480.28;5086317;28;20200;-87
2022/03/03 10:08:50;;;;;;;17.57;16.07;;;;;;;3.97;49.53;92492.84;5085176;28;20292;-83
2022/03/03 10:11:16;;;;;;;15.30;14.00;;;;;;;4.02;51.70;92500.66;5076883;28;20200;-83
2022/03/03 10:13:50;;;;;;;15.53;14.13;;;;;;;4.41;50.26;92483.25;5086427;28;20566;-90
2022/03/03 10:16:26;;;;;;;15.80;14.37;;;;;;;4.43;49.30;92471.66;5084160;28;21256;-86
2022/03/03 10:18:59;;;;;;;18.70;15.70;;;;;;;4.29;50.23;92478.25;5087196;28;20235;-87
2022/03/03 10:21:27;;;;;;;18.00;16.20;;;;;;;3.97;52.99;92492.84;5081993;28;20256;-86
2022/03/03 10:23:52;;;;;;;20.87;18.50;;;;;;;4.00;54.42;92494.97;5083666;28;20311;-85
2022/03/03 10:26:18;;;;;;;20.73;16.90;;;;;;;4.14;53.81;92479.88;5085924;28;20204;-86
2022/03/03 10:28:49;;;;;;;17.33;15.83;;;;;;;3.91;52.34;92504.16;5084893;28;20235;-87
2022/03/03 10:31:16;;;;;;;21.57;19.37;;;;;;;3.83;53.04;92512.31;5085736;28;20209;-86
2022/03/03 10:33:46;;;;;;;21.20;18.93;;;;;;;4.08;52.85;92499.69;5083235;28;20236;-82
2022/03/03 10:36:14;;;;;;;18.87;16.87;;;;;;;4.06;51.66;92493.22;5087648;28;20256;-80
2022/03/03 10:38:58;;;;;;;29.23;23.33;;;;;;;3.73;53.65;92501.09;5085682;28;20290;-85
2022/03/03 10:41:32;;;;;;;19.70;17.70;;;;;;;3.88;53.02;92468.50;5084333;28;20256;-86
2022/03/03 10:44:01;;;;;;;17.87;15.97;;;;;;;3.72;53.39;92489.22;5087727;28;20226;-83
2022/03/03 10:46:27;;;;;;;19.20;17.30;;;;;;;3.90;55.09;92487.13;5088645;28;20188;-84
2022/03/03 10:48:52;;;;;;;18.97;16.93;;;;;;;3.73;53.36;92455.41;5086871;28;20216;-82
2022/03/03 10:51:19;;;;;;;18.73;16.93;;;;;;;3.98;53.88;92463.44;5087643;28;20236;-82
2022/03/03 10:53:45;;;;;;;16.73;15.23;;;;;;;3.74;51.32;92480.19;5084236;28;20274;-83
2022/03/03 10:56:15;;;;;;;19.33;17.40;;;;;;;3.93;54.07;92486.63;5087461;28;20197;-82
2022/03/03 10:58:52;;;;;;;18.30;16.37;;;;;;;4.44;53.84;92488.72;5084754;28;20220;-81
2022/03/03 11:01:21;;;;;;;19.00;16.93;;;;;;;3.66;53.55;92449.63;5088306;28;20224;-82
2022/03/03 11:03:49;;;;;;;19.97;18.07;;;;;;;3.87;53.79;92481.63;5085169;28;20236;-82
2022/03/03 11:06:21;;;;;;;21.00;18.87;;;;;;;3.58;56.25;92475.84;5083818;28;20200;-78
2022/03/03 11:08:47;;;;;;;20.13;17.03;;;;;;;3.72;54.52;92464.16;5102781;28;20223;-85
2022/03/03 11:11:13;;;;;;;17.83;15.90;;;;;;;3.81;54.28;92460.16;5085405;28;20840;-86
2022/03/03 11:13:39;;;;;;;19.30;17.37;;;;;;;3.73;54.61;92496.72;5103097;28;20244;-81
2022/03/03 11:16:07;;;;;;;26.93;22.00;;;;;;;3.93;55.96;92465.19;5086751;28;20207;-80
2022/03/03 11:18:32;;;;;;;20.17;18.03;;;;;;;3.72;55.28;92469.31;5086586;28;20331;-82
2022/03/03 11:20:58;;;;;;;20.23;18.13;;;;;;;3.82;55.14;92468.66;5087337;28;20200;-78